ADDS METAR Data INFO
IDs: Format: Raw Decoded Include TAF

Data at: 1742 UTC 15 Dec 2017

KLFT 151653Z 02009KT 10SM FEW040 OVC100 08/02 A3029 RMK AO2 SLP256 T00830022
KLFT 151553Z 02009KT 10SM OVC100 08/02 A3029 RMK AO2 SLP257 T00830022
KLFT 151453Z 02009KT 10SM OVC110 08/03 A3026 RMK AO2 SLP246 T00830028 53046
KLFT 151353Z 01009KT 10SM OVC110 08/03 A3020 RMK AO2 SLP227 T00830028
KLFT 151253Z 03009KT 10SM BKN110 08/03 A3016 RMK AO2 SLP214 T00830033
KLFT 151153Z 02011KT 10SM CLR 09/04 A3012 RMK AO2 SLP199 T00890039 10111 20089 53010
KLFT 151053Z AUTO 01009KT 10SM CLR 09/04 A3011 RMK AO2 SLP194 T00890044
KLFT 150953Z AUTO 02008KT 10SM CLR 09/05 A3009 RMK AO2 SLP190 T00940050
KLFT 150853Z AUTO 02008KT 10SM CLR 10/06 A3009 RMK AO2 SLP189 T01000056 53006
KLFT 150753Z AUTO 02006KT 10SM CLR 10/06 A3008 RMK AO2 SLP186 T01000061
KLFT 150653Z AUTO 04004KT 10SM CLR 10/06 A3008 RMK AO2 SLP184 T01000061
KLFT 150553Z AUTO 01007KT 10SM CLR 11/07 A3007 RMK AO2 SLP182 T01110067 10139 20106 401830044 51012
KLFT 150453Z AUTO 34006KT 9SM SCT048 12/10 A3007 RMK AO2 SLP181 T01220100
KLFT 150353Z 34004KT 10SM BKN045 12/09 A3005 RMK AO2 SLP175 T01170094
KLFT 150253Z 00000KT 10SM FEW044 11/11 A3004 RMK AO2 SLP170 T01110106 52015
KLFT 150153Z 00000KT 10SM FEW043 BKN050 BKN065 12/11 A3002 RMK AO2 SLP166 T01220106
KLFT 150053Z 00000KT 10SM CLR 12/11 A3001 RMK AO2 SLP160 T01220106
KLFT 142353Z 00000KT 10SM CLR 13/10 A2999 RMK AO2 SLP156 T01280100 10183 20128 53008
KLFT 142253Z 17003KT 10SM CLR 16/09 A2998 RMK AO2 SLP151 T01610094
KLFT 142153Z 00000KT 10SM CLR 17/08 A2998 RMK AO2 SLP150 T01720078
KLFT 142053Z 24005KT 10SM CLR 18/07 A2997 RMK AO2 SLP148 T01780067 55009
KLFT 141953Z 24004KT 10SM CLR 18/06 A2997 RMK AO2 SLP147 T01780061
KLFT 141853Z 28004KT 10SM CLR 18/06 A2998 RMK AO2 SLP151 T01830061
KLFT 141753Z VRB05KT 10SM CLR 18/06 A3000 RMK AO2 SLP157 T01830061 10183 20044 58010
KLFT 141653Z 20006KT 10SM CLR 17/08 A3002 RMK AO2 SLP164 T01670078
KLFT 141553Z 21004KT 10SM CLR 14/09 A3003 RMK AO2 SLP168 T01390089
KLFT 141453Z 00000KT 9SM CLR 09/09 A3003 RMK AO2 SLP167 T00940094 53017
KLFT 141353Z 00000KT 8SM CLR 06/06 A3001 RMK AO2 SLP162 T00610061
KLFT 141302Z 00000KT 7SM FEW002 05/05 A2999 RMK AO2 T00500050
KLFT 141255Z 00000KT 1/4SM VV002 05/05 A2998 RMK AO2 T00500050
KLFT 141253Z 00000KT 7SM SCT002 06/06 A2998 RMK AO2 SLP151 T00560056
KLFT 141246Z 00000KT 7SM FEW002 05/05 A2998 RMK AO2 T00500050
KLFT 141153Z 00000KT 7SM CLR 05/05 A2997 RMK AO2 SLP149 T00500050 10094 20050 55000
KLFT 141149Z 00000KT 7SM FEW002 05/05 A2997 RMK AO2
KLFT 141145Z 00000KT 3/4SM BR CLR 06/06 A2997 RMK AO2 T00610061
KLFT 141126Z 00000KT 3SM BR CLR 06/06 A2997 RMK AO2 T00610061
KLFT 141101Z AUTO 00000KT 1 3/4SM BR CLR 06/06 A2996 RMK AO2 T00610061
KLFT 141053Z AUTO 00000KT 3SM BR CLR 06/06 A2996 RMK AO2 SLP145 T00610061
KLFT 141050Z AUTO 00000KT 3SM BR CLR 06/06 A2996 RMK AO2
KLFT 141034Z AUTO 00000KT 1 3/4SM BR CLR 06/06 A2997 RMK AO2 T00610056
KLFT 141020Z AUTO 00000KT 3SM BR CLR 07/06 A2996 RMK AO2 T00670061
KLFT 141011Z AUTO 00000KT 2SM BR CLR 07/07 A2996 RMK AO2 T00670067
KLFT 141000Z AUTO 00000KT 3/4SM BR CLR 07/07 A2997 RMK AO2 T00670067
KLFT 140953Z AUTO 00000KT 2SM BR CLR 06/06 A2997 RMK AO2 SLP149 T00610061
KLFT 140853Z AUTO 00000KT 9SM CLR 07/07 A2997 RMK AO2 SLP149 T00720072 55003
KLFT 140753Z AUTO 03003KT 10SM CLR 06/05 A2997 RMK AO2 SLP147 T00610050
KLFT 140653Z AUTO 20003KT 10SM CLR 08/07 A2997 RMK AO2 SLP148 T00830072
KLFT 140553Z AUTO 00000KT 10SM CLR 09/07 A2998 RMK AO2 SLP152 T00940072 10111 20083 401560006 58009